Atkins, South Carolina
Current Conditions -  °F | °C
As of 12:15 PM on Saturday 20 Dec 2014 (Local Time) from KSMS Reporting Station
Drizzle Drizzle  
Wind Chill:   Ceiling: 1000
Heat Index:   Visibility: 6mi
Dew Point:   Wind: 6mph
Humidity: 93%   Direction: 40°NE
Pressure: 30.23"   Gusts: NA
Location:  34.0395°N, 80.1095°W
Report Text: KSMS 201715Z AUTO 04005KT 6SM -DZ OVC010 09/08 A3023 RMK AO2
Loading
Personal Weather Stations






























Interactive Weather Map New forecast layout! Learn more

10-Day Weather Forecast

Advertisements
Track Severe Weather on mobile